Terminal Aerodrome Forecast
Issued by NWS Cleveland, OH

Home | Current Version | Previous Version | Text Only | Print | Product List | Glossary On
Versions: 1 2 3 4 5 6 7 8 9 10 11 12 13 14 15 16 17 18 19 20
000
FTUS41 KCLE 231733
TAFCAK
TAF
KCAK 231733Z 2318/2418 23012KT P6SM OVC015
      TEMPO 2318/2320 SCT015
     FM232300 23008KT 5SM -SHRA BR OVC015
     FM240000 23008KT 4SM -SHRA BR OVC007
     FM240400 15006KT 4SM BR SCT015
     FM241200 18010G15KT P6SM SCT025
     FM241700 20015G25KT P6SM SCT025=

USA.gov is the U.S. government's official web portal to all federal, state and local government web resources and services.